createdAt,value
2018-12-22T00:01:19.384Z,99746.50
2018-12-22T00:03:46.973Z,99746.03
2018-12-22T00:06:14.477Z,99751.16
2018-12-22T00:08:41.987Z,99761.92
2018-12-22T00:11:09.440Z,99766.05
2018-12-22T00:13:37.082Z,99771.44
2018-12-22T00:16:05.152Z,99769.06
2018-12-22T00:18:32.685Z,99771.44
2018-12-22T00:21:00.457Z,99787.64
2018-12-22T00:23:30.925Z,99785.52
2018-12-22T00:25:59.488Z,99784.11
2018-12-22T00:28:27.038Z,99786.30
2018-12-22T00:30:54.477Z,99803.78
2018-12-22T00:33:21.950Z,99817.73
2018-12-22T00:35:49.414Z,99818.12
2018-12-22T00:38:16.980Z,99818.27
2018-12-22T00:40:44.563Z,99821.78
2018-12-22T00:43:12.019Z,99819.88
2018-12-22T00:45:39.911Z,99839.17
2018-12-22T00:48:07.501Z,99832.45
2018-12-22T00:50:43.813Z,99840.20
2018-12-22T00:53:11.241Z,99845.49
2018-12-22T00:55:39.486Z,99856.34
2018-12-22T00:58:06.949Z,99866.09
2018-12-22T01:00:34.395Z,99876.84
2018-12-22T01:03:01.886Z,99878.98
2018-12-22T01:05:29.426Z,99898.94
2018-12-22T01:07:56.931Z,99903.34
2018-12-22T01:10:24.353Z,99912.24
2018-12-22T01:12:51.799Z,99910.08
2018-12-22T01:15:19.243Z,99910.58
2018-12-22T01:17:46.676Z,99920.46
2018-12-22T01:20:14.094Z,99918.80
2018-12-22T01:22:41.539Z,99932.16
2018-12-22T01:25:08.985Z,99940.64
2018-12-22T01:27:36.424Z,99928.53
2018-12-22T01:30:04.017Z,99940.55
2018-12-22T01:32:31.422Z,99940.97
2018-12-22T01:35:09.736Z,99939.77
2018-12-22T01:37:37.182Z,99951.31
2018-12-22T01:40:05.174Z,99953.45
2018-12-22T01:42:32.609Z,99962.81
2018-12-22T01:45:00.022Z,99963.84
2018-12-22T01:47:27.425Z,99962.02
2018-12-22T01:49:55.857Z,99963.37
2018-12-22T01:52:23.287Z,99977.67
2018-12-22T01:54:50.718Z,99981.24
2018-12-22T01:57:18.240Z,99985.83
2018-12-22T01:59:45.686Z,99989.64
2018-12-22T02:02:13.141Z,99992.33
2018-12-22T02:04:40.569Z,99996.45
2018-12-22T02:07:08.057Z,99988.44
2018-12-22T02:09:35.501Z,99999.61
2018-12-22T02:12:02.958Z,99997.02
2018-12-22T02:14:40.522Z,99993.77
2018-12-22T02:17:07.954Z,100001.52
2018-12-22T02:19:35.406Z,100003.33
2018-12-22T02:22:02.826Z,100011.40
2018-12-22T02:24:30.266Z,100019.06
2018-12-22T02:26:57.677Z,100016.92
2018-12-22T02:29:25.354Z,100012.00
2018-12-22T02:31:52.876Z,100022.72
2018-12-22T02:34:20.296Z,100017.24
2018-12-22T02:36:47.740Z,100025.78
2018-12-22T02:39:15.138Z,100024.44
2018-12-22T02:41:42.564Z,100026.80
2018-12-22T02:44:10.052Z,100030.78
2018-12-22T02:46:37.463Z,100040.20
2018-12-22T02:49:04.909Z,100041.33
2018-12-22T02:51:32.305Z,100038.72
2018-12-22T02:53:59.726Z,100043.27
2018-12-22T02:56:27.136Z,100047.73
2018-12-22T02:59:06.281Z,100038.72
2018-12-22T03:01:31.742Z,100051.48
2018-12-22T03:03:59.182Z,100053.80
2018-12-22T03:06:26.629Z,100060.77
2018-12-22T03:08:54.088Z,100057.56
2018-12-22T03:11:21.634Z,100060.77
2018-12-22T03:13:49.115Z,100056.27
2018-12-22T03:16:16.545Z,100066.23
2018-12-22T03:18:45.683Z,100069.34
2018-12-22T03:21:13.305Z,100070.92
2018-12-22T03:23:40.712Z,100070.00
2018-12-22T03:26:08.145Z,100068.79
2018-12-22T03:28:35.694Z,100076.53
2018-12-22T03:31:04.160Z,100075.56
2018-12-22T03:33:31.634Z,100069.39
2018-12-22T03:35:59.043Z,100078.02
2018-12-22T03:38:26.490Z,100075.33
2018-12-22T03:41:00.877Z,100083.78
2018-12-22T03:43:28.358Z,100078.34
2018-12-22T03:45:55.829Z,100082.84
2018-12-22T03:48:23.274Z,100086.00
2018-12-22T03:50:50.715Z,100084.20
2018-12-22T03:53:18.174Z,100084.28
2018-12-22T03:55:45.590Z,100092.81
2018-12-22T03:58:13.042Z,100091.01
2018-12-22T04:00:40.570Z,100096.77
2018-12-22T04:03:08.089Z,100102.61
2018-12-22T04:05:35.520Z,100100.34
2018-12-22T04:08:02.935Z,100105.25
2018-12-22T04:13:04.363Z,100107.86
2018-12-22T04:15:31.868Z,100111.05
2018-12-22T04:17:59.270Z,100106.60
2018-12-22T04:20:26.734Z,100108.88
2018-12-22T04:22:54.248Z,100108.97
2018-12-22T04:25:28.552Z,100108.50
2018-12-22T04:27:56.007Z,100110.77
2018-12-22T04:30:23.847Z,100115.27
2018-12-22T04:32:51.330Z,100121.95
2018-12-22T04:35:18.794Z,100121.45
2018-12-22T04:37:46.297Z,100131.38
2018-12-22T04:40:13.740Z,100138.48
2018-12-22T04:42:41.211Z,100148.78
2018-12-22T04:45:08.660Z,100149.57
2018-12-22T04:47:36.136Z,100147.43
2018-12-22T04:50:03.626Z,100146.97
2018-12-22T04:52:31.264Z,100156.44
2018-12-22T04:54:58.722Z,100154.49
2018-12-22T04:57:26.165Z,100150.53
2018-12-22T04:59:53.864Z,100157.65
2018-12-22T05:02:21.302Z,100154.09
2018-12-22T05:04:48.770Z,100151.06
2018-12-22T05:07:16.247Z,100157.18
2018-12-22T05:09:43.776Z,100154.44
2018-12-22T05:12:16.298Z,100170.23
2018-12-22T05:14:43.848Z,100161.67
2018-12-22T05:17:11.285Z,100161.67
2018-12-22T05:19:38.766Z,100163.89
2018-12-22T05:22:06.523Z,100162.47
2018-12-22T05:24:34.092Z,100157.25
2018-12-22T05:27:01.558Z,100157.98
2018-12-22T05:29:28.994Z,100170.23
2018-12-22T05:31:56.405Z,100171.25
2018-12-22T05:34:23.891Z,100177.98
2018-12-22T05:36:51.342Z,100179.45
2018-12-22T05:39:18.874Z,100182.15
2018-12-22T05:41:46.288Z,100181.81
2018-12-22T05:44:13.711Z,100192.96
2018-12-22T05:46:41.169Z,100198.34
2018-12-22T05:49:08.650Z,100201.12
2018-12-22T05:51:36.122Z,100212.30
2018-12-22T05:54:06.173Z,100207.30
2018-12-22T05:56:35.169Z,100209.11
2018-12-22T05:59:02.650Z,100211.67
2018-12-22T06:01:30.099Z,100208.93
2018-12-22T06:03:57.530Z,100207.59
2018-12-22T06:06:24.983Z,100189.61
2018-12-22T06:08:52.395Z,100208.72
2018-12-22T06:11:20.074Z,100215.53
2018-12-22T06:13:47.510Z,100220.03
2018-12-22T06:16:15.050Z,100224.53
2018-12-22T06:18:42.497Z,100226.76
2018-12-22T06:21:10.110Z,100228.16
2018-12-22T06:23:37.651Z,100232.19
2018-12-22T06:26:05.106Z,100234.96
2018-12-22T06:28:32.687Z,100238.53
2018-12-22T06:31:00.111Z,100235.38
2018-12-22T06:33:27.518Z,100230.05
2018-12-22T06:35:55.051Z,100234.37
2018-12-22T06:38:22.593Z,100241.70
2018-12-22T06:40:56.631Z,100256.02
2018-12-22T06:43:24.526Z,100255.41
2018-12-22T06:45:51.968Z,100259.62
2018-12-22T06:48:19.392Z,100254.83
2018-12-22T06:50:46.830Z,100263.81
2018-12-22T06:53:14.250Z,100271.89
2018-12-22T06:55:41.714Z,100265.17
2018-12-22T06:58:09.143Z,100263.33
2018-12-22T07:00:36.699Z,100262.36
2018-12-22T07:03:04.197Z,100266.89
2018-12-22T07:05:31.835Z,100267.19
2018-12-22T07:07:59.330Z,100271.66
2018-12-22T07:10:27.883Z,100288.05
2018-12-22T07:12:55.446Z,100294.91
2018-12-22T07:15:22.895Z,100291.33
2018-12-22T07:17:50.369Z,100295.33
2018-12-22T07:20:19.605Z,100295.07
2018-12-22T07:22:56.552Z,100306.52
2018-12-22T07:25:24.943Z,100307.47
2018-12-22T07:27:54.662Z,100321.98
2018-12-22T07:30:26.345Z,100327.92
2018-12-22T07:32:57.225Z,100328.37
2018-12-22T07:35:23.791Z,100341.42
2018-12-22T07:37:51.299Z,100334.54
2018-12-22T07:40:18.777Z,100341.23
2018-12-22T07:42:46.244Z,100338.92
2018-12-22T07:45:13.679Z,100341.97
2018-12-22T07:47:41.120Z,100345.09
2018-12-22T07:50:08.772Z,100348.11
2018-12-22T07:52:36.270Z,100354.37
2018-12-22T07:55:03.716Z,100352.64
2018-12-22T07:57:31.167Z,100353.47
2018-12-22T08:02:33.246Z,100361.73
2018-12-22T08:05:00.674Z,100373.34
2018-12-22T08:07:29.288Z,100384.05
2018-12-22T08:09:56.706Z,100384.84
2018-12-22T08:12:24.193Z,100393.53
2018-12-22T08:14:51.690Z,100403.83
2018-12-22T08:17:19.558Z,100397.44
2018-12-22T08:19:47.002Z,100406.44
2018-12-22T08:22:14.401Z,100404.59
2018-12-22T08:24:41.877Z,100407.88
2018-12-22T08:27:09.276Z,100413.07
2018-12-22T08:29:36.706Z,100419.99
2018-12-22T08:32:04.122Z,100413.81
2018-12-22T08:34:31.511Z,100430.98
2018-12-22T08:36:58.928Z,100445.66
2018-12-22T08:39:26.335Z,100445.20
2018-12-22T08:41:53.746Z,100446.93
2018-12-22T08:44:21.142Z,100454.95
2018-12-22T08:46:50.610Z,100457.53
2018-12-22T08:49:18.107Z,100466.94
2018-12-22T08:51:45.604Z,100471.79
2018-12-22T08:54:13.010Z,100471.33
2018-12-22T08:56:40.485Z,100479.32
2018-12-22T08:59:35.043Z,100481.62
2018-12-22T09:02:06.583Z,100484.94
2018-12-22T09:04:48.006Z,100494.31
2018-12-22T09:07:15.446Z,100505.80
2018-12-22T09:09:43.718Z,100502.55
2018-12-22T09:12:11.122Z,100501.16
2018-12-22T09:14:38.559Z,100516.69
2018-12-22T09:17:06.011Z,100522.49
2018-12-22T09:19:38.474Z,100517.47
2018-12-22T09:22:05.967Z,100526.84
2018-12-22T09:24:33.403Z,100538.87
2018-12-22T09:27:00.935Z,100542.45
2018-12-22T09:29:28.334Z,100548.28
2018-12-22T09:34:39.567Z,100550.05
2018-12-22T09:39:52.536Z,100558.47
2018-12-22T09:45:04.094Z,100571.11
2018-12-22T09:47:31.565Z,100574.65
2018-12-22T09:49:59.026Z,100574.65
2018-12-22T09:52:26.434Z,100575.98
2018-12-22T09:54:53.826Z,100580.45
2018-12-22T09:57:21.227Z,100585.76
2018-12-22T09:59:50.696Z,100584.95
2018-12-22T10:02:19.345Z,100595.24
2018-12-22T10:04:47.547Z,100587.63
2018-12-22T10:07:14.982Z,100590.32
2018-12-22T10:09:42.393Z,100597.47
2018-12-22T10:12:09.790Z,100605.08
2018-12-22T10:14:37.263Z,100601.08
2018-12-22T10:17:05.006Z,100605.58
2018-12-22T10:19:32.660Z,100604.73
2018-12-22T10:22:00.121Z,100606.46
2018-12-22T10:24:27.518Z,100610.45
2018-12-22T10:26:54.919Z,100612.27
2018-12-22T10:29:22.406Z,100619.38
2018-12-22T10:31:49.839Z,100624.09
2018-12-22T10:34:17.262Z,100623.84
2018-12-22T10:36:44.678Z,100623.91
2018-12-22T10:39:12.415Z,100619.06
2018-12-22T10:41:40.177Z,100624.55
2018-12-22T10:44:07.574Z,100629.53
2018-12-22T10:46:36.051Z,100633.57
2018-12-22T10:49:04.286Z,100624.55
2018-12-22T10:51:31.826Z,100630.81
2018-12-22T10:54:00.388Z,100625.75
2018-12-22T10:56:27.781Z,100638.77
2018-12-22T10:58:55.414Z,100645.42
2018-12-22T11:01:26.693Z,100651.30
2018-12-22T11:03:52.549Z,100653.42
2018-12-22T11:06:19.954Z,100656.11
2018-12-22T11:08:47.350Z,100651.69
2018-12-22T11:11:14.878Z,100651.69
2018-12-22T11:13:42.267Z,100663.38
2018-12-22T11:16:09.866Z,100666.48
2018-12-22T11:18:37.378Z,100668.75
2018-12-22T11:21:04.814Z,100672.26
2018-12-22T11:23:32.370Z,100673.21
2018-12-22T11:25:59.930Z,100674.09
2018-12-22T11:28:27.314Z,100678.59
2018-12-22T11:30:59.801Z,100677.18
2018-12-22T11:33:27.266Z,100685.78
2018-12-22T11:35:54.746Z,100690.70
2018-12-22T11:38:22.166Z,100700.93
2018-12-22T11:40:50.747Z,100693.84
2018-12-22T11:43:18.254Z,100699.72
2018-12-22T11:45:45.785Z,100696.15
2018-12-22T11:50:55.018Z,100696.15
2018-12-22T11:53:22.488Z,100693.84
2018-12-22T11:55:50.017Z,100700.12
2018-12-22T11:58:17.639Z,100699.72
2018-12-22T12:00:45.263Z,100702.34
2018-12-22T12:03:12.750Z,100706.38
2018-12-22T12:05:40.421Z,100711.69
2018-12-22T12:08:08.040Z,100722.45
2018-12-22T12:10:35.500Z,100720.58
2018-12-22T12:13:02.915Z,100720.19
2018-12-22T12:15:33.861Z,100720.29
2018-12-22T12:20:08.118Z,100722.73
2018-12-22T12:22:35.565Z,100728.11
2018-12-22T12:25:02.995Z,100728.53
2018-12-22T12:27:30.470Z,100727.61
2018-12-22T12:29:57.898Z,100724.39
2018-12-22T12:32:25.304Z,100731.97
2018-12-22T12:34:52.808Z,100732.40
2018-12-22T12:37:20.283Z,100741.36
2018-12-22T12:39:47.670Z,100742.63
2018-12-22T12:42:15.214Z,100749.36
2018-12-22T12:44:42.980Z,100752.47
2018-12-22T12:47:10.490Z,100753.36
2018-12-22T12:49:37.912Z,100756.90
2018-12-22T12:52:05.339Z,100758.67
2018-12-22T12:54:32.832Z,100765.83
2018-12-22T12:57:00.263Z,100762.18
2018-12-22T12:59:29.774Z,100760.84
2018-12-22T13:02:01.312Z,100684.52
2018-12-22T13:04:26.883Z,100770.16
2018-12-22T13:06:54.551Z,100780.88
2018-12-22T13:09:22.270Z,100785.83
2018-12-22T13:11:50.808Z,100791.16
2018-12-22T13:14:19.772Z,100795.19
2018-12-22T13:16:47.292Z,100796.03
2018-12-22T13:19:14.682Z,100796.50
2018-12-22T13:21:43.294Z,100800.47
2018-12-22T13:24:10.713Z,100797.74
2018-12-22T13:26:38.138Z,100802.70
2018-12-22T13:29:05.570Z,100800.47
2018-12-22T13:31:32.997Z,100813.00
2018-12-22T13:34:00.412Z,100815.27
2018-12-22T13:36:34.442Z,100818.81
2018-12-22T13:39:00.158Z,100816.94
2018-12-22T13:41:30.826Z,100819.63
2018-12-22T13:43:58.238Z,100818.38
2018-12-22T13:46:25.659Z,100824.61
2018-12-22T13:48:53.470Z,100827.96
2018-12-22T13:51:22.441Z,100829.77
2018-12-22T13:53:50.017Z,100830.33
2018-12-22T13:56:17.443Z,100835.25
2018-12-22T13:58:46.107Z,100825.44
2018-12-22T14:01:14.878Z,100825.05
2018-12-22T14:03:43.362Z,100821.08
2018-12-22T14:06:14.267Z,100824.66
2018-12-22T14:08:41.715Z,100826.00
2018-12-22T14:11:09.173Z,100826.45
2018-12-22T14:13:36.673Z,100818.91
2018-12-22T14:16:10.410Z,100820.16
2018-12-22T14:18:41.166Z,100827.17
2018-12-22T14:21:09.682Z,100828.03
2018-12-22T14:23:46.534Z,100834.23
2018-12-22T14:26:13.947Z,100831.94
2018-12-22T14:28:41.418Z,100840.86
2018-12-22T14:31:08.941Z,100845.55
2018-12-22T14:33:36.383Z,100847.58
2018-12-22T14:36:05.695Z,100848.39
2018-12-22T14:38:33.151Z,100851.09
2018-12-22T14:41:00.561Z,100851.16
2018-12-22T14:43:28.007Z,100858.97
2018-12-22T14:45:55.438Z,100861.11
2018-12-22T14:48:22.845Z,100863.05
2018-12-22T14:50:50.318Z,100856.32
2018-12-22T14:53:17.729Z,100870.47
2018-12-22T14:55:45.148Z,100872.83
2018-12-22T14:58:17.401Z,100875.16
2018-12-22T15:00:44.838Z,100878.28
2018-12-22T15:03:12.238Z,100886.28
2018-12-22T15:05:39.651Z,100888.25
2018-12-22T15:08:07.065Z,100889.57
2018-12-22T15:10:34.479Z,100891.94
2018-12-22T15:13:01.874Z,100888.59
2018-12-22T15:15:29.274Z,100891.27
2018-12-22T15:17:56.726Z,100892.45
2018-12-22T15:20:24.849Z,100902.05
2018-12-22T15:22:52.254Z,100898.59
2018-12-22T15:25:19.818Z,100898.75
2018-12-22T15:27:47.219Z,100902.27
2018-12-22T15:30:14.645Z,100905.78
2018-12-22T15:32:46.243Z,100904.86
2018-12-22T15:35:11.489Z,100914.19
2018-12-22T15:37:38.914Z,100912.81
2018-12-22T15:40:06.519Z,100909.26
2018-12-22T15:42:33.914Z,100911.06
2018-12-22T15:45:01.713Z,100915.00
2018-12-22T15:47:29.364Z,100914.64
2018-12-22T15:49:56.785Z,100912.14
2018-12-22T15:52:24.167Z,100920.48
2018-12-22T15:54:51.671Z,100921.25
2018-12-22T15:57:19.085Z,100919.63
2018-12-22T15:59:46.581Z,100914.71
2018-12-22T16:02:14.002Z,100926.01
2018-12-22T16:04:41.718Z,100923.05
2018-12-22T16:07:09.163Z,100930.61
2018-12-22T16:09:36.617Z,100933.92
2018-12-22T16:12:04.098Z,100936.61
2018-12-22T16:14:31.520Z,100941.60
2018-12-22T16:16:58.981Z,100943.21
2018-12-22T16:19:26.563Z,100944.59
2018-12-22T16:21:54.082Z,100953.59
2018-12-22T16:24:21.502Z,100952.20
2018-12-22T16:26:51.138Z,100946.46
2018-12-22T16:29:21.555Z,100950.50
2018-12-22T16:31:50.446Z,100955.88
2018-12-22T16:34:19.918Z,100954.11
2018-12-22T16:36:47.321Z,100961.72
2018-12-22T16:39:14.834Z,100956.80
2018-12-22T16:41:42.327Z,100961.27
2018-12-22T16:44:11.586Z,100957.78
2018-12-22T16:46:38.998Z,100964.58
2018-12-22T16:49:08.478Z,100963.69
2018-12-22T16:51:36.046Z,100965.56
2018-12-22T16:54:03.512Z,100963.33
2018-12-22T16:56:31.016Z,100965.16
2018-12-22T16:58:59.412Z,100968.73
2018-12-22T17:02:32.701Z,100976.72
2018-12-22T17:05:00.239Z,100979.78
2018-12-22T17:07:27.710Z,100986.97
2018-12-22T17:09:55.181Z,100988.64
2018-12-22T17:12:22.625Z,100997.45
2018-12-22T17:14:50.730Z,100996.39
2018-12-22T17:17:18.129Z,101002.30
2018-12-22T17:19:45.599Z,101014.84
2018-12-22T17:22:15.330Z,101012.17
2018-12-22T17:24:45.053Z,101023.37
2018-12-22T17:27:12.439Z,101018.41
2018-12-22T17:29:39.958Z,101025.60
2018-12-22T17:32:07.388Z,101022.84
2018-12-22T17:34:34.842Z,101027.77
2018-12-22T17:37:02.245Z,101026.43
2018-12-22T17:39:36.613Z,101035.82
2018-12-22T17:41:59.071Z,101038.45
2018-12-22T17:44:26.461Z,101043.28
2018-12-22T17:46:53.866Z,101046.06
2018-12-22T17:49:21.320Z,101051.39
2018-12-22T17:51:48.726Z,101054.05
2018-12-22T17:54:16.130Z,101060.35
2018-12-22T17:56:43.586Z,101063.11
2018-12-22T17:59:11.073Z,101072.92
2018-12-22T18:01:38.466Z,101069.34
2018-12-22T18:04:07.058Z,101079.29
2018-12-22T18:06:34.521Z,101084.15
2018-12-22T18:09:02.009Z,101085.93
2018-12-22T18:11:29.406Z,101087.27
2018-12-22T18:13:56.805Z,101095.81
2018-12-22T18:16:24.202Z,101104.77
2018-12-22T18:18:51.702Z,101097.22
2018-12-22T18:21:19.099Z,101108.88
2018-12-22T18:23:46.608Z,101120.50
2018-12-22T18:26:14.042Z,101116.52
2018-12-22T18:28:41.469Z,101126.31
2018-12-22T18:31:08.935Z,101125.79
2018-12-22T18:33:36.329Z,101124.42
2018-12-22T18:36:03.781Z,101129.83
2018-12-22T18:38:31.154Z,101132.06
2018-12-22T18:40:58.602Z,101136.10
2018-12-22T18:43:27.440Z,101137.08
2018-12-22T18:45:54.835Z,101143.30
2018-12-22T18:48:28.726Z,101142.00
2018-12-22T18:50:56.178Z,101150.02
2018-12-22T18:53:23.586Z,101148.22
2018-12-22T18:55:51.034Z,101151.38
2018-12-22T19:01:06.888Z,101151.00
2018-12-22T19:09:02.893Z,101167.22
2018-12-22T19:11:30.327Z,101166.33
2018-12-22T19:13:57.729Z,101173.00
2018-12-22T19:16:25.137Z,101177.92
2018-12-22T19:18:52.556Z,101182.39
2018-12-22T19:21:20.112Z,101185.97
2018-12-22T19:23:47.523Z,101187.72
2018-12-22T19:26:14.953Z,101192.19
2018-12-22T19:28:42.442Z,101192.19
2018-12-22T19:31:09.896Z,101200.09
2018-12-22T19:33:37.330Z,101209.61
2018-12-22T19:36:04.736Z,101214.53
2018-12-22T19:38:32.233Z,101219.02
2018-12-22T19:40:59.618Z,101219.02
2018-12-22T19:43:27.701Z,101227.83
2018-12-22T19:45:56.023Z,101232.17
2018-12-22T19:48:23.518Z,101230.45
2018-12-22T19:50:50.913Z,101234.67
2018-12-22T19:53:18.310Z,101232.92
2018-12-22T19:55:45.714Z,101231.59
2018-12-22T19:58:13.152Z,101228.97
2018-12-22T20:00:40.585Z,101228.02
2018-12-22T20:03:08.083Z,101237.44
2018-12-22T20:05:35.602Z,101242.83
2018-12-22T20:08:02.990Z,101245.52
2018-12-22T20:10:30.549Z,101245.12
2018-12-22T20:12:58.010Z,101250.51
2018-12-22T20:15:25.402Z,101256.75
2018-12-22T20:17:52.832Z,101252.70
2018-12-22T20:20:20.403Z,101258.15
2018-12-22T20:22:47.838Z,101259.94
2018-12-22T20:25:15.234Z,101260.30
2018-12-22T20:27:42.633Z,101260.30
2018-12-22T20:30:10.074Z,101261.67
2018-12-22T20:32:37.551Z,101267.49
2018-12-22T20:35:04.994Z,101266.61
2018-12-22T20:37:32.635Z,101267.58
2018-12-22T20:40:00.036Z,101270.80
2018-12-22T20:42:27.570Z,101274.90
2018-12-22T20:44:55.046Z,101277.97
2018-12-22T20:47:22.491Z,101278.42
2018-12-22T20:49:49.898Z,101288.20
2018-12-22T20:52:17.294Z,101282.92
2018-12-22T20:54:44.786Z,101291.89
2018-12-22T20:57:12.207Z,101294.87
2018-12-22T20:59:39.661Z,101291.45
2018-12-22T21:02:07.099Z,101297.33
2018-12-22T21:04:34.529Z,101291.45
2018-12-22T21:07:02.032Z,101290.63
2018-12-22T21:09:29.490Z,101299.53
2018-12-22T21:11:57.021Z,101302.14
2018-12-22T21:14:24.511Z,101302.14
2018-12-22T21:16:51.949Z,101303.02
2018-12-22T21:19:19.489Z,101306.10
2018-12-22T21:21:46.935Z,101311.48
2018-12-22T21:24:16.983Z,101308.80
2018-12-22T21:26:44.464Z,101308.34
2018-12-22T21:29:11.898Z,101310.04
2018-12-22T21:31:39.334Z,101314.75
2018-12-22T21:34:07.858Z,101311.70
2018-12-22T21:36:35.241Z,101322.08
2018-12-22T21:39:03.122Z,101331.76
2018-12-22T21:41:30.667Z,101333.24
2018-12-22T21:43:58.098Z,101333.70
2018-12-22T21:46:25.499Z,101326.97
2018-12-22T21:48:52.944Z,101331.89
2018-12-22T21:51:20.437Z,101336.39
2018-12-22T21:53:47.830Z,101339.97
2018-12-22T21:56:15.244Z,101337.73
2018-12-22T21:58:43.662Z,101336.83
2018-12-22T22:01:11.120Z,101343.13
2018-12-22T22:03:38.538Z,101342.66
2018-12-22T22:06:05.962Z,101339.53
2018-12-22T22:08:33.402Z,101344.92
2018-12-22T22:11:00.809Z,101349.85
2018-12-22T22:13:28.285Z,101354.33
2018-12-22T22:15:55.724Z,101349.83
2018-12-22T22:18:23.225Z,101352.98
2018-12-22T22:20:50.774Z,101352.55
2018-12-22T22:23:19.108Z,101350.05
2018-12-22T22:25:46.849Z,101343.19
2018-12-22T22:28:14.279Z,101350.00
2018-12-22T22:30:42.703Z,101361.20
2018-12-22T22:33:10.123Z,101363.30
2018-12-22T22:35:37.570Z,101362.41
2018-12-22T22:38:05.027Z,101364.67
2018-12-22T22:40:32.432Z,101363.33
2018-12-22T22:43:00.331Z,101358.83
2018-12-22T22:45:27.845Z,101359.72
2018-12-22T22:47:55.249Z,101369.14
2018-12-22T22:50:22.645Z,101370.41
2018-12-22T22:52:50.056Z,101372.20
2018-12-22T22:55:17.455Z,101372.59
2018-12-22T22:57:44.898Z,101370.80
2018-12-22T23:00:20.452Z,101383.37
2018-12-22T23:02:47.938Z,101380.20
2018-12-22T23:05:15.443Z,101381.63
2018-12-22T23:07:42.846Z,101386.63
2018-12-22T23:10:11.284Z,101386.66
2018-12-22T23:12:38.754Z,101394.78
2018-12-22T23:15:06.234Z,101391.20
2018-12-22T23:17:33.689Z,101393.00
2018-12-22T23:20:01.131Z,101395.75
2018-12-22T23:22:28.550Z,101392.63
2018-12-22T23:24:56.041Z,101396.69
2018-12-22T23:27:23.498Z,101395.34
2018-12-22T23:29:50.933Z,101388.66
2018-12-22T23:32:18.370Z,101398.09
2018-12-22T23:34:45.814Z,101395.39
2018-12-22T23:37:13.217Z,101388.69
2018-12-22T23:39:40.735Z,101390.98
2018-12-22T23:42:08.203Z,101391.44
2018-12-22T23:44:35.819Z,101390.09
2018-12-22T23:47:03.358Z,101383.43
2018-12-22T23:49:30.765Z,101382.97
2018-12-22T23:51:58.285Z,101381.63
2018-12-22T23:54:25.812Z,101379.84
2018-12-22T23:56:53.327Z,101374.08
